METAR Formatted Surface Weather Observation
Issued by NWS

Home | Current Version | Previous Version | Text Only | Print | Product List | Glossary On
Versions: 1 2 3 4 5 6 7 8 9 10 11 12 13 14 15
000
SAUS45 KPSR 202057
MTRFHU
METAR KFHU 202056Z AUTO 07004KT 10SM CLR 14/M06 A3010 RMK AO2 SLP177
T01441056 58019 $



USA.gov is the U.S. government's official web portal to all federal, state and local government web resources and services.